<?xml version="1.0" encoding="UTF-8" standalone="no" ?>
<gpx xmlns="http://www.topografix.com/GPX/1/1" xmlns:xsi="http://www.w3.org/2001/XMLSchema-instance" xsi:schemaLocation="http://www.topografix.com/GPX/1/1 http://www.topografix.com/GPX/1/1/gpx.xsd" version="1.1" creator="VisuGPX - https://www.visugpx.com">
  <metadata>
    <name>FLOBECQ ENEO</name>
    <desc><![CDATA[GUIDE : André.
Belle randonnée  dans le pays des collines (province du hainaut)
]]></desc>
  </metadata>
  <trk>
    <name><![CDATA[2017-04-24 19:22:30]]></name>
    <trkseg>
      <trkpt lat="50.73528" lon="3.73692">
        <ele>84.73</ele>
        <time>2017-04-24T15:05:26Z</time>
      </trkpt>
      <trkpt lat="50.73524" lon="3.73688">
        <ele>84.73</ele>
        <time>2017-04-24T15:05:29Z</time>
      </trkpt>
      <trkpt lat="50.73522" lon="3.73684">
        <ele>84.73</ele>
        <time>2017-04-24T15:05:33Z</time>
      </trkpt>
      <trkpt lat="50.73517" lon="3.73675">
        <ele>84.73</ele>
        <time>2017-04-24T15:05:40Z</time>
      </trkpt>
      <trkpt lat="50.73517" lon="3.73673">
        <ele>85.21</ele>
        <time>2017-04-24T15:05:41Z</time>
      </trkpt>
      <trkpt lat="50.73505" lon="3.73657">
        <ele>85.21</ele>
        <time>2017-04-24T15:05:55Z</time>
      </trkpt>
      <trkpt lat="50.73489" lon="3.73642">
        <ele>81.85</ele>
        <time>2017-04-24T15:06:07Z</time>
      </trkpt>
      <trkpt lat="50.73488" lon="3.73641">
        <ele>81.85</ele>
        <time>2017-04-24T15:06:08Z</time>
      </trkpt>
      <trkpt lat="50.73482" lon="3.73636">
        <ele>78</ele>
        <time>2017-04-24T15:06:14Z</time>
      </trkpt>
      <trkpt lat="50.73481" lon="3.73634">
        <ele>77.04</ele>
        <time>2017-04-24T15:06:16Z</time>
      </trkpt>
      <trkpt lat="50.73475" lon="3.73628">
        <ele>73.2</ele>
        <time>2017-04-24T15:06:21Z</time>
      </trkpt>
      <trkpt lat="50.73468" lon="3.73619">
        <ele>70.79</ele>
        <time>2017-04-24T15:06:29Z</time>
      </trkpt>
      <trkpt lat="50.73464" lon="3.73614">
        <ele>67.91</ele>
        <time>2017-04-24T15:06:34Z</time>
      </trkpt>
      <trkpt lat="50.73455" lon="3.73605">
        <ele>64.55</ele>
        <time>2017-04-24T15:06:42Z</time>
      </trkpt>
      <trkpt lat="50.73441" lon="3.73587">
        <ele>61.66</ele>
        <time>2017-04-24T15:06:58Z</time>
      </trkpt>
      <trkpt lat="50.73433" lon="3.73578">
        <ele>59.26</ele>
        <time>2017-04-24T15:07:06Z</time>
      </trkpt>
      <trkpt lat="50.73416" lon="3.73555">
        <ele>55.89</ele>
        <time>2017-04-24T15:07:22Z</time>
      </trkpt>
      <trkpt lat="50.73406" lon="3.73526">
        <ele>54.93</ele>
        <time>2017-04-24T15:07:38Z</time>
      </trkpt>
      <trkpt lat="50.73393" lon="3.73496">
        <ele>54.45</ele>
        <time>2017-04-24T15:07:56Z</time>
      </trkpt>
      <trkpt lat="50.7338" lon="3.73465">
        <ele>53.97</ele>
        <time>2017-04-24T15:08:15Z</time>
      </trkpt>
      <trkpt lat="50.7337" lon="3.73437">
        <ele>54.93</ele>
        <time>2017-04-24T15:08:32Z</time>
      </trkpt>
      <trkpt lat="50.73369" lon="3.73435">
        <ele>54.93</ele>
        <time>2017-04-24T15:08:33Z</time>
      </trkpt>
      <trkpt lat="50.73361" lon="3.73432">
        <ele>54.93</ele>
        <time>2017-04-24T15:08:39Z</time>
      </trkpt>
      <trkpt lat="50.73348" lon="3.73429">
        <ele>54.93</ele>
        <time>2017-04-24T15:08:52Z</time>
      </trkpt>
      <trkpt lat="50.7333" lon="3.73426">
        <ele>55.89</ele>
        <time>2017-04-24T15:09:08Z</time>
      </trkpt>
      <trkpt lat="50.7332" lon="3.73433">
        <ele>55.89</ele>
        <time>2017-04-24T15:09:12Z</time>
      </trkpt>
      <trkpt lat="50.73301" lon="3.73424">
        <ele>55.89</ele>
        <time>2017-04-24T15:09:24Z</time>
      </trkpt>
      <trkpt lat="50.73299" lon="3.73418">
        <ele>55.89</ele>
        <time>2017-04-24T15:09:27Z</time>
      </trkpt>
      <trkpt lat="50.73295" lon="3.73407">
        <ele>53.97</ele>
        <time>2017-04-24T15:09:33Z</time>
      </trkpt>
      <trkpt lat="50.73294" lon="3.73405">
        <ele>55.41</ele>
        <time>2017-04-24T15:09:34Z</time>
      </trkpt>
      <trkpt lat="50.73289" lon="3.734">
        <ele>55.41</ele>
        <time>2017-04-24T15:09:44Z</time>
      </trkpt>
      <trkpt lat="50.7327" lon="3.7341">
        <ele>55.41</ele>
        <time>2017-04-24T15:10:00Z</time>
      </trkpt>
      <trkpt lat="50.73269" lon="3.73421">
        <ele>55.41</ele>
        <time>2017-04-24T15:10:13Z</time>
      </trkpt>
      <trkpt lat="50.73273" lon="3.73438">
        <ele>55.41</ele>
        <time>2017-04-24T15:10:25Z</time>
      </trkpt>
      <trkpt lat="50.73266" lon="3.73473">
        <ele>54.93</ele>
        <time>2017-04-24T15:10:40Z</time>
      </trkpt>
      <trkpt lat="50.73258" lon="3.73495">
        <ele>54.93</ele>
        <time>2017-04-24T15:10:53Z</time>
      </trkpt>
      <trkpt lat="50.73255" lon="3.73506">
        <ele>54.93</ele>
        <time>2017-04-24T15:11:00Z</time>
      </trkpt>
      <trkpt lat="50.73248" lon="3.73521">
        <ele>54.93</ele>
        <time>2017-04-24T15:11:10Z</time>
      </trkpt>
      <trkpt lat="50.73239" lon="3.73524">
        <ele>49.65</ele>
        <time>2017-04-24T15:11:19Z</time>
      </trkpt>
      <trkpt lat="50.73238" lon="3.73523">
        <ele>49.65</ele>
        <time>2017-04-24T15:11:20Z</time>
      </trkpt>
      <trkpt lat="50.73238" lon="3.73523">
        <ele>55.41</ele>
        <time>2017-04-24T15:11:21Z</time>
      </trkpt>
      <trkpt lat="50.73237" lon="3.73522">
        <ele>55.41</ele>
        <time>2017-04-24T15:11:22Z</time>
      </trkpt>
      <trkpt lat="50.73231" lon="3.73517">
        <ele>55.41</ele>
        <time>2017-04-24T15:11:28Z</time>
      </trkpt>
      <trkpt lat="50.73218" lon="3.73506">
        <ele>53.49</ele>
        <time>2017-04-24T15:11:45Z</time>
      </trkpt>
      <trkpt lat="50.73209" lon="3.73511">
        <ele>52.53</ele>
        <time>2017-04-24T15:12:03Z</time>
      </trkpt>
      <trkpt lat="50.73198" lon="3.73511">
        <ele>52.05</ele>
        <time>2017-04-24T15:12:14Z</time>
      </trkpt>
      <trkpt lat="50.73187" lon="3.73512">
        <ele>52.05</ele>
        <time>2017-04-24T15:12:24Z</time>
      </trkpt>
      <trkpt lat="50.73176" lon="3.73537">
        <ele>52.05</ele>
        <time>2017-04-24T15:12:39Z</time>
      </trkpt>
      <trkpt lat="50.73166" lon="3.73567">
        <ele>53.01</ele>
        <time>2017-04-24T15:12:54Z</time>
      </trkpt>
      <trkpt lat="50.73155" lon="3.73597">
        <ele>53.49</ele>
        <time>2017-04-24T15:13:09Z</time>
      </trkpt>
      <trkpt lat="50.73146" lon="3.73623">
        <ele>53.97</ele>
        <time>2017-04-24T15:13:23Z</time>
      </trkpt>
      <trkpt lat="50.7313" lon="3.73662">
        <ele>54.45</ele>
        <time>2017-04-24T15:13:43Z</time>
      </trkpt>
      <trkpt lat="50.73121" lon="3.73688">
        <ele>54.45</ele>
        <time>2017-04-24T15:13:58Z</time>
      </trkpt>
      <trkpt lat="50.73108" lon="3.7373">
        <ele>52.53</ele>
        <time>2017-04-24T15:14:19Z</time>
      </trkpt>
      <trkpt lat="50.73098" lon="3.73767">
        <ele>51.57</ele>
        <time>2017-04-24T15:14:38Z</time>
      </trkpt>
      <trkpt lat="50.73091" lon="3.738">
        <ele>50.61</ele>
        <time>2017-04-24T15:14:54Z</time>
      </trkpt>
      <trkpt lat="50.73088" lon="3.73823">
        <ele>50.13</ele>
        <time>2017-04-24T15:15:06Z</time>
      </trkpt>
      <trkpt lat="50.73083" lon="3.73856">
        <ele>49.65</ele>
        <time>2017-04-24T15:15:23Z</time>
      </trkpt>
      <trkpt lat="50.73077" lon="3.73888">
        <ele>49.65</ele>
        <time>2017-04-24T15:15:40Z</time>
      </trkpt>
      <trkpt lat="50.73069" lon="3.7392">
        <ele>49.16</ele>
        <time>2017-04-24T15:15:58Z</time>
      </trkpt>
      <trkpt lat="50.7306" lon="3.73951">
        <ele>48.68</ele>
        <time>2017-04-24T15:16:15Z</time>
      </trkpt>
      <trkpt lat="50.73049" lon="3.73981">
        <ele>48.68</ele>
        <time>2017-04-24T15:16:31Z</time>
      </trkpt>
      <trkpt lat="50.73035" lon="3.74019">
        <ele>48.68</ele>
        <time>2017-04-24T15:16:50Z</time>
      </trkpt>
      <trkpt lat="50.73024" lon="3.74055">
        <ele>48.2</ele>
        <time>2017-04-24T15:17:11Z</time>
      </trkpt>
      <trkpt lat="50.73014" lon="3.74091">
        <ele>47.72</ele>
        <time>2017-04-24T15:17:30Z</time>
      </trkpt>
      <trkpt lat="50.73006" lon="3.74119">
        <ele>47.72</ele>
        <time>2017-04-24T15:17:45Z</time>
      </trkpt>
      <trkpt lat="50.72997" lon="3.74158">
        <ele>46.76</ele>
        <time>2017-04-24T15:18:06Z</time>
      </trkpt>
      <trkpt lat="50.7299" lon="3.74187">
        <ele>46.76</ele>
        <time>2017-04-24T15:18:22Z</time>
      </trkpt>
      <trkpt lat="50.72982" lon="3.74217">
        <ele>46.76</ele>
        <time>2017-04-24T15:18:38Z</time>
      </trkpt>
      <trkpt lat="50.72973" lon="3.74251">
        <ele>46.28</ele>
        <time>2017-04-24T15:18:57Z</time>
      </trkpt>
      <trkpt lat="50.72967" lon="3.74283">
        <ele>45.8</ele>
        <time>2017-04-24T15:19:14Z</time>
      </trkpt>
      <trkpt lat="50.72964" lon="3.74321">
        <ele>45.8</ele>
        <time>2017-04-24T15:19:33Z</time>
      </trkpt>
      <trkpt lat="50.72962" lon="3.74351">
        <ele>45.32</ele>
        <time>2017-04-24T15:19:49Z</time>
      </trkpt>
      <trkpt lat="50.72958" lon="3.74383">
        <ele>45.32</ele>
        <time>2017-04-24T15:20:05Z</time>
      </trkpt>
      <trkpt lat="50.72952" lon="3.7442">
        <ele>45.32</ele>
        <time>2017-04-24T15:20:24Z</time>
      </trkpt>
      <trkpt lat="50.72946" lon="3.74449">
        <ele>45.32</ele>
        <time>2017-04-24T15:20:40Z</time>
      </trkpt>
      <trkpt lat="50.7294" lon="3.74477">
        <ele>45.32</ele>
        <time>2017-04-24T15:20:55Z</time>
      </trkpt>
      <trkpt lat="50.72931" lon="3.74509">
        <ele>46.76</ele>
        <time>2017-04-24T15:21:12Z</time>
      </trkpt>
      <trkpt lat="50.72923" lon="3.74542">
        <ele>46.76</ele>
        <time>2017-04-24T15:21:30Z</time>
      </trkpt>
      <trkpt lat="50.72914" lon="3.74578">
        <ele>46.76</ele>
        <time>2017-04-24T15:21:50Z</time>
      </trkpt>
      <trkpt lat="50.72903" lon="3.74616">
        <ele>46.76</ele>
        <time>2017-04-24T15:22:09Z</time>
      </trkpt>
      <trkpt lat="50.72894" lon="3.74648">
        <ele>47.72</ele>
        <time>2017-04-24T15:22:27Z</time>
      </trkpt>
      <trkpt lat="50.72882" lon="3.74674">
        <ele>48.2</ele>
        <time>2017-04-24T15:22:44Z</time>
      </trkpt>
      <trkpt lat="50.72866" lon="3.74702">
        <ele>48.68</ele>
        <time>2017-04-24T15:23:03Z</time>
      </trkpt>
      <trkpt lat="50.7285" lon="3.74733">
        <ele>48.68</ele>
        <time>2017-04-24T15:23:23Z</time>
      </trkpt>
      <trkpt lat="50.72838" lon="3.74753">
        <ele>49.16</ele>
        <time>2017-04-24T15:23:40Z</time>
      </trkpt>
      <trkpt lat="50.72827" lon="3.74781">
        <ele>50.61</ele>
        <time>2017-04-24T15:23:57Z</time>
      </trkpt>
      <trkpt lat="50.72813" lon="3.74809">
        <ele>50.61</ele>
        <time>2017-04-24T15:24:15Z</time>
      </trkpt>
      <trkpt lat="50.72799" lon="3.7484">
        <ele>50.61</ele>
        <time>2017-04-24T15:24:34Z</time>
      </trkpt>
      <trkpt lat="50.72785" lon="3.74872">
        <ele>48.68</ele>
        <time>2017-04-24T15:24:54Z</time>
      </trkpt>
      <trkpt lat="50.72765" lon="3.74901">
        <ele>48.2</ele>
        <time>2017-04-24T15:25:15Z</time>
      </trkpt>
      <trkpt lat="50.72747" lon="3.74924">
        <ele>48.2</ele>
        <time>2017-04-24T15:25:34Z</time>
      </trkpt>
      <trkpt lat="50.7273" lon="3.74948">
        <ele>47.72</ele>
        <time>2017-04-24T15:25:53Z</time>
      </trkpt>
      <trkpt lat="50.72712" lon="3.7497">
        <ele>47.24</ele>
        <time>2017-04-24T15:26:10Z</time>
      </trkpt>
      <trkpt lat="50.72696" lon="3.74991">
        <ele>46.76</ele>
        <time>2017-04-24T15:26:26Z</time>
      </trkpt>
      <trkpt lat="50.72678" lon="3.75012">
        <ele>46.28</ele>
        <time>2017-04-24T15:26:43Z</time>
      </trkpt>
      <trkpt lat="50.72657" lon="3.75029">
        <ele>45.8</ele>
        <time>2017-04-24T15:27:02Z</time>
      </trkpt>
      <trkpt lat="50.72636" lon="3.75042">
        <ele>45.8</ele>
        <time>2017-04-24T15:27:20Z</time>
      </trkpt>
      <trkpt lat="50.72615" lon="3.75067">
        <ele>45.8</ele>
        <time>2017-04-24T15:27:41Z</time>
      </trkpt>
      <trkpt lat="50.72599" lon="3.75092">
        <ele>45.8</ele>
        <time>2017-04-24T15:27:59Z</time>
      </trkpt>
      <trkpt lat="50.7259" lon="3.75106">
        <ele>45.8</ele>
        <time>2017-04-24T15:28:10Z</time>
      </trkpt>
      <trkpt lat="50.72579" lon="3.75123">
        <ele>46.76</ele>
        <time>2017-04-24T15:28:22Z</time>
      </trkpt>
      <trkpt lat="50.72564" lon="3.75149">
        <ele>46.76</ele>
        <time>2017-04-24T15:28:39Z</time>
      </trkpt>
      <trkpt lat="50.72554" lon="3.75167">
        <ele>46.76</ele>
        <time>2017-04-24T15:28:52Z</time>
      </trkpt>
      <trkpt lat="50.72547" lon="3.75179">
        <ele>45.32</ele>
        <time>2017-04-24T15:29:00Z</time>
      </trkpt>
      <trkpt lat="50.72533" lon="3.75208">
        <ele>46.76</ele>
        <time>2017-04-24T15:29:19Z</time>
      </trkpt>
      <trkpt lat="50.72519" lon="3.7524">
        <ele>46.76</ele>
        <time>2017-04-24T15:29:39Z</time>
      </trkpt>
      <trkpt lat="50.72505" lon="3.75277">
        <ele>47.24</ele>
        <time>2017-04-24T15:30:01Z</time>
      </trkpt>
      <trkpt lat="50.72496" lon="3.753">
        <ele>47.72</ele>
        <time>2017-04-24T15:30:16Z</time>
      </trkpt>
      <trkpt lat="50.72484" lon="3.75328">
        <ele>48.2</ele>
        <time>2017-04-24T15:30:32Z</time>
      </trkpt>
      <trkpt lat="50.72473" lon="3.75361">
        <ele>48.2</ele>
        <time>2017-04-24T15:30:50Z</time>
      </trkpt>
      <trkpt lat="50.72464" lon="3.75395">
        <ele>48.2</ele>
        <time>2017-04-24T15:31:08Z</time>
      </trkpt>
      <trkpt lat="50.72454" lon="3.7543">
        <ele>47.72</ele>
        <time>2017-04-24T15:31:27Z</time>
      </trkpt>
      <trkpt lat="50.72445" lon="3.75468">
        <ele>46.76</ele>
        <time>2017-04-24T15:31:47Z</time>
      </trkpt>
      <trkpt lat="50.72435" lon="3.75507">
        <ele>46.28</ele>
        <time>2017-04-24T15:32:07Z</time>
      </trkpt>
      <trkpt lat="50.72425" lon="3.75547">
        <ele>45.8</ele>
        <time>2017-04-24T15:32:29Z</time>
      </trkpt>
      <trkpt lat="50.72416" lon="3.75581">
        <ele>44.84</ele>
        <time>2017-04-24T15:32:46Z</time>
      </trkpt>
      <trkpt lat="50.72406" lon="3.75622">
        <ele>44.36</ele>
        <time>2017-04-24T15:33:07Z</time>
      </trkpt>
      <trkpt lat="50.72399" lon="3.75658">
        <ele>43.88</ele>
        <time>2017-04-24T15:33:26Z</time>
      </trkpt>
      <trkpt lat="50.72389" lon="3.75705">
        <ele>42.92</ele>
        <time>2017-04-24T15:33:49Z</time>
      </trkpt>
      <trkpt lat="50.72381" lon="3.75741">
        <ele>42.92</ele>
        <time>2017-04-24T15:34:07Z</time>
      </trkpt>
      <trkpt lat="50.72372" lon="3.75785">
        <ele>42.92</ele>
        <time>2017-04-24T15:34:29Z</time>
      </trkpt>
      <trkpt lat="50.72363" lon="3.75826">
        <ele>42.44</ele>
        <time>2017-04-24T15:34:51Z</time>
      </trkpt>
      <trkpt lat="50.72355" lon="3.75863">
        <ele>41.95</ele>
        <time>2017-04-24T15:35:10Z</time>
      </trkpt>
      <trkpt lat="50.72353" lon="3.75869">
        <ele>41.47</ele>
        <time>2017-04-24T15:35:14Z</time>
      </trkpt>
      <trkpt lat="50.72349" lon="3.75897">
        <ele>40.51</ele>
        <time>2017-04-24T15:35:30Z</time>
      </trkpt>
      <trkpt lat="50.72338" lon="3.75945">
        <ele>40.51</ele>
        <time>2017-04-24T15:35:53Z</time>
      </trkpt>
      <trkpt lat="50.72332" lon="3.75985">
        <ele>40.03</ele>
        <time>2017-04-24T15:36:12Z</time>
      </trkpt>
      <trkpt lat="50.72329" lon="3.76022">
        <ele>40.03</ele>
        <time>2017-04-24T15:36:31Z</time>
      </trkpt>
      <trkpt lat="50.72327" lon="3.76063">
        <ele>40.03</ele>
        <time>2017-04-24T15:36:52Z</time>
      </trkpt>
      <trkpt lat="50.72324" lon="3.76102">
        <ele>40.03</ele>
        <time>2017-04-24T15:37:11Z</time>
      </trkpt>
      <trkpt lat="50.7232" lon="3.76145">
        <ele>40.03</ele>
        <time>2017-04-24T15:37:32Z</time>
      </trkpt>
      <trkpt lat="50.72315" lon="3.76184">
        <ele>40.03</ele>
        <time>2017-04-24T15:37:52Z</time>
      </trkpt>
      <trkpt lat="50.72308" lon="3.76227">
        <ele>40.03</ele>
        <time>2017-04-24T15:38:14Z</time>
      </trkpt>
      <trkpt lat="50.72302" lon="3.76266">
        <ele>40.03</ele>
        <time>2017-04-24T15:38:34Z</time>
      </trkpt>
      <trkpt lat="50.72299" lon="3.76285">
        <ele>40.03</ele>
        <time>2017-04-24T15:38:49Z</time>
      </trkpt>
      <trkpt lat="50.72293" lon="3.76312">
        <ele>40.03</ele>
        <time>2017-04-24T15:39:05Z</time>
      </trkpt>
      <trkpt lat="50.72285" lon="3.76348">
        <ele>40.03</ele>
        <time>2017-04-24T15:39:23Z</time>
      </trkpt>
      <trkpt lat="50.7228" lon="3.76386">
        <ele>40.03</ele>
        <time>2017-04-24T15:39:41Z</time>
      </trkpt>
      <trkpt lat="50.72277" lon="3.76416">
        <ele>40.99</ele>
        <time>2017-04-24T15:39:58Z</time>
      </trkpt>
      <trkpt lat="50.72274" lon="3.76455">
        <ele>40.99</ele>
        <time>2017-04-24T15:40:18Z</time>
      </trkpt>
      <trkpt lat="50.72271" lon="3.76496">
        <ele>40.99</ele>
        <time>2017-04-24T15:40:37Z</time>
      </trkpt>
      <trkpt lat="50.72271" lon="3.76536">
        <ele>40.99</ele>
        <time>2017-04-24T15:40:56Z</time>
      </trkpt>
      <trkpt lat="50.72271" lon="3.76571">
        <ele>41.47</ele>
        <time>2017-04-24T15:41:12Z</time>
      </trkpt>
      <trkpt lat="50.7227" lon="3.76616">
        <ele>41.95</ele>
        <time>2017-04-24T15:41:33Z</time>
      </trkpt>
      <trkpt lat="50.72269" lon="3.76655">
        <ele>41.47</ele>
        <time>2017-04-24T15:41:51Z</time>
      </trkpt>
      <trkpt lat="50.72274" lon="3.76686">
        <ele>41.47</ele>
        <time>2017-04-24T15:42:08Z</time>
      </trkpt>
      <trkpt lat="50.72296" lon="3.76699">
        <ele>41.47</ele>
        <time>2017-04-24T15:42:26Z</time>
      </trkpt>
      <trkpt lat="50.72319" lon="3.76704">
        <ele>39.55</ele>
        <time>2017-04-24T15:42:44Z</time>
      </trkpt>
      <trkpt lat="50.7234" lon="3.76706">
        <ele>38.11</ele>
        <time>2017-04-24T15:43:00Z</time>
      </trkpt>
      <trkpt lat="50.72361" lon="3.76704">
        <ele>38.11</ele>
        <time>2017-04-24T15:43:16Z</time>
      </trkpt>
      <trkpt lat="50.72378" lon="3.76697">
        <ele>38.11</ele>
        <time>2017-04-24T15:43:30Z</time>
      </trkpt>
      <trkpt lat="50.72391" lon="3.7669">
        <ele>37.63</ele>
        <time>2017-04-24T15:43:42Z</time>
      </trkpt>
      <trkpt lat="50.72396" lon="3.76689">
        <ele>37.63</ele>
        <time>2017-04-24T15:43:47Z</time>
      </trkpt>
      <trkpt lat="50.72405" lon="3.76681">
        <ele>37.63</ele>
        <time>2017-04-24T15:43:56Z</time>
      </trkpt>
      <trkpt lat="50.72423" lon="3.76668">
        <ele>37.15</ele>
        <time>2017-04-24T15:44:12Z</time>
      </trkpt>
      <trkpt lat="50.72431" lon="3.76664">
        <ele>37.15</ele>
        <time>2017-04-24T15:44:20Z</time>
      </trkpt>
      <trkpt lat="50.72454" lon="3.76661">
        <ele>37.15</ele>
        <time>2017-04-24T15:44:35Z</time>
      </trkpt>
      <trkpt lat="50.72475" lon="3.76655">
        <ele>38.11</ele>
        <time>2017-04-24T15:44:50Z</time>
      </trkpt>
      <trkpt lat="50.72479" lon="3.76656">
        <ele>39.07</ele>
        <time>2017-04-24T15:45:00Z</time>
      </trkpt>
      <trkpt lat="50.72495" lon="3.76654">
        <ele>40.51</ele>
        <time>2017-04-24T15:45:13Z</time>
      </trkpt>
      <trkpt lat="50.72519" lon="3.76648">
        <ele>40.51</ele>
        <time>2017-04-24T15:45:32Z</time>
      </trkpt>
      <trkpt lat="50.72542" lon="3.76646">
        <ele>40.51</ele>
        <time>2017-04-24T15:45:51Z</time>
      </trkpt>
      <trkpt lat="50.72563" lon="3.76643">
        <ele>41.47</ele>
        <time>2017-04-24T15:46:08Z</time>
      </trkpt>
      <trkpt lat="50.72577" lon="3.76639">
        <ele>42.44</ele>
        <time>2017-04-24T15:46:21Z</time>
      </trkpt>
      <trkpt lat="50.72599" lon="3.76633">
        <ele>40.51</ele>
        <time>2017-04-24T15:46:39Z</time>
      </trkpt>
      <trkpt lat="50.72624" lon="3.76627">
        <ele>39.55</ele>
        <time>2017-04-24T15:46:58Z</time>
      </trkpt>
      <trkpt lat="50.72647" lon="3.7662">
        <ele>38.59</ele>
        <time>2017-04-24T15:47:16Z</time>
      </trkpt>
      <trkpt lat="50.72669" lon="3.76613">
        <ele>38.11</ele>
        <time>2017-04-24T15:47:33Z</time>
      </trkpt>
      <trkpt lat="50.72693" lon="3.76601">
        <ele>38.11</ele>
        <time>2017-04-24T15:47:53Z</time>
      </trkpt>
      <trkpt lat="50.72707" lon="3.76594">
        <ele>37.63</ele>
        <time>2017-04-24T15:48:09Z</time>
      </trkpt>
      <trkpt lat="50.72732" lon="3.76594">
        <ele>37.63</ele>
        <time>2017-04-24T15:48:25Z</time>
      </trkpt>
      <trkpt lat="50.72764" lon="3.76595">
        <ele>37.63</ele>
        <time>2017-04-24T15:48:49Z</time>
      </trkpt>
      <trkpt lat="50.72787" lon="3.76597">
        <ele>38.59</ele>
        <time>2017-04-24T15:49:06Z</time>
      </trkpt>
      <trkpt lat="50.72809" lon="3.76595">
        <ele>38.59</ele>
        <time>2017-04-24T15:49:24Z</time>
      </trkpt>
      <trkpt lat="50.7283" lon="3.76588">
        <ele>39.07</ele>
        <time>2017-04-24T15:49:42Z</time>
      </trkpt>
      <trkpt lat="50.72852" lon="3.76578">
        <ele>40.03</ele>
        <time>2017-04-24T15:50:00Z</time>
      </trkpt>
      <trkpt lat="50.72872" lon="3.76568">
        <ele>40.99</ele>
        <time>2017-04-24T15:50:18Z</time>
      </trkpt>
      <trkpt lat="50.72892" lon="3.76556">
        <ele>40.99</ele>
        <time>2017-04-24T15:50:34Z</time>
      </trkpt>
      <trkpt lat="50.72903" lon="3.76538">
        <ele>40.03</ele>
        <time>2017-04-24T15:50:46Z</time>
      </trkpt>
      <trkpt lat="50.72911" lon="3.76514">
        <ele>40.03</ele>
        <time>2017-04-24T15:51:02Z</time>
      </trkpt>
      <trkpt lat="50.72917" lon="3.765">
        <ele>40.03</ele>
        <time>2017-04-24T15:51:14Z</time>
      </trkpt>
      <trkpt lat="50.72928" lon="3.76477">
        <ele>39.55</ele>
        <time>2017-04-24T15:51:31Z</time>
      </trkpt>
      <trkpt lat="50.72935" lon="3.76468">
        <ele>39.07</ele>
        <time>2017-04-24T15:51:40Z</time>
      </trkpt>
      <trkpt lat="50.72947" lon="3.76469">
        <ele>38.59</ele>
        <time>2017-04-24T15:51:52Z</time>
      </trkpt>
      <trkpt lat="50.72949" lon="3.76465">
        <ele>38.11</ele>
        <time>2017-04-24T15:51:55Z</time>
      </trkpt>
      <trkpt lat="50.72958" lon="3.76443">
        <ele>37.63</ele>
        <time>2017-04-24T15:52:12Z</time>
      </trkpt>
      <trkpt lat="50.72965" lon="3.76423">
        <ele>37.15</ele>
        <time>2017-04-24T15:52:27Z</time>
      </trkpt>
      <trkpt lat="50.72976" lon="3.76395">
        <ele>35.71</ele>
        <time>2017-04-24T15:52:45Z</time>
      </trkpt>
      <trkpt lat="50.72988" lon="3.76362">
        <ele>34.74</ele>
        <time>2017-04-24T15:53:05Z</time>
      </trkpt>
      <trkpt lat="50.72996" lon="3.76337">
        <ele>33.78</ele>
        <time>2017-04-24T15:53:22Z</time>
      </trkpt>
      <trkpt lat="50.73005" lon="3.76313">
        <ele>33.3</ele>
        <time>2017-04-24T15:53:37Z</time>
      </trkpt>
      <trkpt lat="50.73015" lon="3.76287">
        <ele>32.82</ele>
        <time>2017-04-24T15:53:53Z</time>
      </trkpt>
      <trkpt lat="50.73024" lon="3.76265">
        <ele>32.34</ele>
        <time>2017-04-24T15:54:09Z</time>
      </trkpt>
      <trkpt lat="50.73027" lon="3.76258">
        <ele>32.34</ele>
        <time>2017-04-24T15:54:13Z</time>
      </trkpt>
      <trkpt lat="50.73036" lon="3.76237">
        <ele>33.3</ele>
        <time>2017-04-24T15:54:27Z</time>
      </trkpt>
      <trkpt lat="50.73043" lon="3.76213">
        <ele>33.78</ele>
        <time>2017-04-24T15:54:43Z</time>
      </trkpt>
      <trkpt lat="50.73051" lon="3.76184">
        <ele>33.78</ele>
        <time>2017-04-24T15:54:57Z</time>
      </trkpt>
      <trkpt lat="50.73061" lon="3.76154">
        <ele>33.78</ele>
        <time>2017-04-24T15:55:15Z</time>
      </trkpt>
      <trkpt lat="50.73069" lon="3.76133">
        <ele>34.74</ele>
        <time>2017-04-24T15:55:29Z</time>
      </trkpt>
      <trkpt lat="50.73079" lon="3.76109">
        <ele>34.74</ele>
        <time>2017-04-24T15:55:44Z</time>
      </trkpt>
      <trkpt lat="50.7309" lon="3.76084">
        <ele>34.74</ele>
        <time>2017-04-24T15:56:01Z</time>
      </trkpt>
      <trkpt lat="50.73101" lon="3.76055">
        <ele>34.74</ele>
        <time>2017-04-24T15:56:18Z</time>
      </trkpt>
      <trkpt lat="50.7311" lon="3.76025">
        <ele>34.74</ele>
        <time>2017-04-24T15:56:36Z</time>
      </trkpt>
      <trkpt lat="50.73122" lon="3.75998">
        <ele>34.74</ele>
        <time>2017-04-24T15:56:53Z</time>
      </trkpt>
      <trkpt lat="50.73128" lon="3.75983">
        <ele>34.74</ele>
        <time>2017-04-24T15:57:02Z</time>
      </trkpt>
      <trkpt lat="50.73139" lon="3.75958">
        <ele>34.74</ele>
        <time>2017-04-24T15:57:19Z</time>
      </trkpt>
      <trkpt lat="50.73148" lon="3.75929">
        <ele>35.23</ele>
        <time>2017-04-24T15:57:37Z</time>
      </trkpt>
      <trkpt lat="50.73155" lon="3.75904">
        <ele>35.23</ele>
        <time>2017-04-24T15:57:53Z</time>
      </trkpt>
      <trkpt lat="50.73162" lon="3.75878">
        <ele>35.23</ele>
        <time>2017-04-24T15:58:09Z</time>
      </trkpt>
      <trkpt lat="50.73171" lon="3.75858">
        <ele>35.23</ele>
        <time>2017-04-24T15:58:22Z</time>
      </trkpt>
      <trkpt lat="50.73181" lon="3.7584">
        <ele>35.23</ele>
        <time>2017-04-24T15:58:36Z</time>
      </trkpt>
      <trkpt lat="50.73184" lon="3.75827">
        <ele>35.23</ele>
        <time>2017-04-24T15:58:44Z</time>
      </trkpt>
      <trkpt lat="50.7319" lon="3.75812">
        <ele>35.23</ele>
        <time>2017-04-24T15:58:53Z</time>
      </trkpt>
      <trkpt lat="50.732" lon="3.7579">
        <ele>35.23</ele>
        <time>2017-04-24T15:59:08Z</time>
      </trkpt>
      <trkpt lat="50.7321" lon="3.7576">
        <ele>35.23</ele>
        <time>2017-04-24T15:59:25Z</time>
      </trkpt>
      <trkpt lat="50.73219" lon="3.75737">
        <ele>34.74</ele>
        <time>2017-04-24T15:59:40Z</time>
      </trkpt>
      <trkpt lat="50.73229" lon="3.75711">
        <ele>34.74</ele>
        <time>2017-04-24T15:59:57Z</time>
      </trkpt>
      <trkpt lat="50.73235" lon="3.75698">
        <ele>34.74</ele>
        <time>2017-04-24T16:00:06Z</time>
      </trkpt>
      <trkpt lat="50.73237" lon="3.75691">
        <ele>34.74</ele>
        <time>2017-04-24T16:00:10Z</time>
      </trkpt>
      <trkpt lat="50.73242" lon="3.7568">
        <ele>34.74</ele>
        <time>2017-04-24T16:00:18Z</time>
      </trkpt>
      <trkpt lat="50.7325" lon="3.75654">
        <ele>34.74</ele>
        <time>2017-04-24T16:00:34Z</time>
      </trkpt>
      <trkpt lat="50.7326" lon="3.75627">
        <ele>34.74</ele>
        <time>2017-04-24T16:00:50Z</time>
      </trkpt>
      <trkpt lat="50.73267" lon="3.75612">
        <ele>33.78</ele>
        <time>2017-04-24T16:00:59Z</time>
      </trkpt>
      <trkpt lat="50.73269" lon="3.75607">
        <ele>33.78</ele>
        <time>2017-04-24T16:01:02Z</time>
      </trkpt>
      <trkpt lat="50.7327" lon="3.75602">
        <ele>33.78</ele>
        <time>2017-04-24T16:01:05Z</time>
      </trkpt>
      <trkpt lat="50.73276" lon="3.75578">
        <ele>33.3</ele>
        <time>2017-04-24T16:01:19Z</time>
      </trkpt>
      <trkpt lat="50.73282" lon="3.75563">
        <ele>33.3</ele>
        <time>2017-04-24T16:01:35Z</time>
      </trkpt>
      <trkpt lat="50.73284" lon="3.75564">
        <ele>32.82</ele>
        <time>2017-04-24T16:01:56Z</time>
      </trkpt>
      <trkpt lat="50.73285" lon="3.75563">
        <ele>32.82</ele>
        <time>2017-04-24T16:02:21Z</time>
      </trkpt>
      <trkpt lat="50.73288" lon="3.75565">
        <ele>32.82</ele>
        <time>2017-04-24T16:02:42Z</time>
      </trkpt>
      <trkpt lat="50.73289" lon="3.75562">
        <ele>32.82</ele>
        <time>2017-04-24T16:03:08Z</time>
      </trkpt>
      <trkpt lat="50.73288" lon="3.7556">
        <ele>34.26</ele>
        <time>2017-04-24T16:03:19Z</time>
      </trkpt>
      <trkpt lat="50.73287" lon="3.75561">
        <ele>34.26</ele>
        <time>2017-04-24T16:03:40Z</time>
      </trkpt>
      <trkpt lat="50.73288" lon="3.75561">
        <ele>34.26</ele>
        <time>2017-04-24T16:04:03Z</time>
      </trkpt>
      <trkpt lat="50.73288" lon="3.75561">
        <ele>34.26</ele>
        <time>2017-04-24T16:04:25Z</time>
      </trkpt>
      <trkpt lat="50.73285" lon="3.75559">
        <ele>34.26</ele>
        <time>2017-04-24T16:04:48Z</time>
      </trkpt>
      <trkpt lat="50.73286" lon="3.75557">
        <ele>34.26</ele>
        <time>2017-04-24T16:05:03Z</time>
      </trkpt>
      <trkpt lat="50.73286" lon="3.75554">
        <ele>34.26</ele>
        <time>2017-04-24T16:05:19Z</time>
      </trkpt>
      <trkpt lat="50.73292" lon="3.7554">
        <ele>34.26</ele>
        <time>2017-04-24T16:05:34Z</time>
      </trkpt>
      <trkpt lat="50.73296" lon="3.75524">
        <ele>34.26</ele>
        <time>2017-04-24T16:05:46Z</time>
      </trkpt>
      <trkpt lat="50.73304" lon="3.75502">
        <ele>34.26</ele>
        <time>2017-04-24T16:06:02Z</time>
      </trkpt>
      <trkpt lat="50.73309" lon="3.75495">
        <ele>34.26</ele>
        <time>2017-04-24T16:06:07Z</time>
      </trkpt>
      <trkpt lat="50.73317" lon="3.75476">
        <ele>34.26</ele>
        <time>2017-04-24T16:06:21Z</time>
      </trkpt>
      <trkpt lat="50.73325" lon="3.75447">
        <ele>34.26</ele>
        <time>2017-04-24T16:06:38Z</time>
      </trkpt>
      <trkpt lat="50.73341" lon="3.75427">
        <ele>34.74</ele>
        <time>2017-04-24T16:06:54Z</time>
      </trkpt>
      <trkpt lat="50.73344" lon="3.75421">
        <ele>34.74</ele>
        <time>2017-04-24T16:06:57Z</time>
      </trkpt>
      <trkpt lat="50.73351" lon="3.75402">
        <ele>34.74</ele>
        <time>2017-04-24T16:07:11Z</time>
      </trkpt>
      <trkpt lat="50.7336" lon="3.75375">
        <ele>35.23</ele>
        <time>2017-04-24T16:07:27Z</time>
      </trkpt>
      <trkpt lat="50.73372" lon="3.75347">
        <ele>35.23</ele>
        <time>2017-04-24T16:07:44Z</time>
      </trkpt>
      <trkpt lat="50.73382" lon="3.75318">
        <ele>35.23</ele>
        <time>2017-04-24T16:08:01Z</time>
      </trkpt>
      <trkpt lat="50.73393" lon="3.75294">
        <ele>35.23</ele>
        <time>2017-04-24T16:08:17Z</time>
      </trkpt>
      <trkpt lat="50.73403" lon="3.75267">
        <ele>34.26</ele>
        <time>2017-04-24T16:08:34Z</time>
      </trkpt>
      <trkpt lat="50.73424" lon="3.75251">
        <ele>33.78</ele>
        <time>2017-04-24T16:08:51Z</time>
      </trkpt>
      <trkpt lat="50.73446" lon="3.7525">
        <ele>33.78</ele>
        <time>2017-04-24T16:09:08Z</time>
      </trkpt>
      <trkpt lat="50.73466" lon="3.7525">
        <ele>33.78</ele>
        <time>2017-04-24T16:09:25Z</time>
      </trkpt>
      <trkpt lat="50.73484" lon="3.75252">
        <ele>33.78</ele>
        <time>2017-04-24T16:09:40Z</time>
      </trkpt>
      <trkpt lat="50.73504" lon="3.75253">
        <ele>33.78</ele>
        <time>2017-04-24T16:09:56Z</time>
      </trkpt>
      <trkpt lat="50.73523" lon="3.75251">
        <ele>34.74</ele>
        <time>2017-04-24T16:10:12Z</time>
      </trkpt>
      <trkpt lat="50.73541" lon="3.75249">
        <ele>35.23</ele>
        <time>2017-04-24T16:10:28Z</time>
      </trkpt>
      <trkpt lat="50.73564" lon="3.75247">
        <ele>36.19</ele>
        <time>2017-04-24T16:10:47Z</time>
      </trkpt>
      <trkpt lat="50.73583" lon="3.75243">
        <ele>35.71</ele>
        <time>2017-04-24T16:11:03Z</time>
      </trkpt>
      <trkpt lat="50.73604" lon="3.75237">
        <ele>36.19</ele>
        <time>2017-04-24T16:11:21Z</time>
      </trkpt>
      <trkpt lat="50.73623" lon="3.75231">
        <ele>34.74</ele>
        <time>2017-04-24T16:11:38Z</time>
      </trkpt>
      <trkpt lat="50.73639" lon="3.75232">
        <ele>33.78</ele>
        <time>2017-04-24T16:11:52Z</time>
      </trkpt>
      <trkpt lat="50.73658" lon="3.75249">
        <ele>33.3</ele>
        <time>2017-04-24T16:12:09Z</time>
      </trkpt>
      <trkpt lat="50.7367" lon="3.75258">
        <ele>32.34</ele>
        <time>2017-04-24T16:12:21Z</time>
      </trkpt>
      <trkpt lat="50.73675" lon="3.75257">
        <ele>32.34</ele>
        <time>2017-04-24T16:12:25Z</time>
      </trkpt>
      <trkpt lat="50.73687" lon="3.75229">
        <ele>31.86</ele>
        <time>2017-04-24T16:12:42Z</time>
      </trkpt>
      <trkpt lat="50.73699" lon="3.75205">
        <ele>31.38</ele>
        <time>2017-04-24T16:12:57Z</time>
      </trkpt>
      <trkpt lat="50.73721" lon="3.75189">
        <ele>30.9</ele>
        <time>2017-04-24T16:13:14Z</time>
      </trkpt>
      <trkpt lat="50.73742" lon="3.75182">
        <ele>30.42</ele>
        <time>2017-04-24T16:13:30Z</time>
      </trkpt>
      <trkpt lat="50.73747" lon="3.75177">
        <ele>30.42</ele>
        <time>2017-04-24T16:13:35Z</time>
      </trkpt>
      <trkpt lat="50.73754" lon="3.75147">
        <ele>30.42</ele>
        <time>2017-04-24T16:13:50Z</time>
      </trkpt>
      <trkpt lat="50.73757" lon="3.75134">
        <ele>30.42</ele>
        <time>2017-04-24T16:13:58Z</time>
      </trkpt>
      <trkpt lat="50.73762" lon="3.75096">
        <ele>30.42</ele>
        <time>2017-04-24T16:14:16Z</time>
      </trkpt>
      <trkpt lat="50.73767" lon="3.75059">
        <ele>29.94</ele>
        <time>2017-04-24T16:14:34Z</time>
      </trkpt>
      <trkpt lat="50.73771" lon="3.75038">
        <ele>29.94</ele>
        <time>2017-04-24T16:14:47Z</time>
      </trkpt>
      <trkpt lat="50.73782" lon="3.75016">
        <ele>29.94</ele>
        <time>2017-04-24T16:15:02Z</time>
      </trkpt>
      <trkpt lat="50.73782" lon="3.75015">
        <ele>29.94</ele>
        <time>2017-04-24T16:15:03Z</time>
      </trkpt>
      <trkpt lat="50.73786" lon="3.75007">
        <ele>29.94</ele>
        <time>2017-04-24T16:15:08Z</time>
      </trkpt>
      <trkpt lat="50.7379" lon="3.74995">
        <ele>29.94</ele>
        <time>2017-04-24T16:15:15Z</time>
      </trkpt>
      <trkpt lat="50.73798" lon="3.74967">
        <ele>29.94</ele>
        <time>2017-04-24T16:15:31Z</time>
      </trkpt>
      <trkpt lat="50.73811" lon="3.74948">
        <ele>29.94</ele>
        <time>2017-04-24T16:15:45Z</time>
      </trkpt>
      <trkpt lat="50.73831" lon="3.74928">
        <ele>29.94</ele>
        <time>2017-04-24T16:16:04Z</time>
      </trkpt>
      <trkpt lat="50.73841" lon="3.74912">
        <ele>29.94</ele>
        <time>2017-04-24T16:16:15Z</time>
      </trkpt>
      <trkpt lat="50.73846" lon="3.74907">
        <ele>29.94</ele>
        <time>2017-04-24T16:16:20Z</time>
      </trkpt>
      <trkpt lat="50.73853" lon="3.74897">
        <ele>29.94</ele>
        <time>2017-04-24T16:16:28Z</time>
      </trkpt>
      <trkpt lat="50.73871" lon="3.74883">
        <ele>29.94</ele>
        <time>2017-04-24T16:16:45Z</time>
      </trkpt>
      <trkpt lat="50.73873" lon="3.74883">
        <ele>29.94</ele>
        <time>2017-04-24T16:16:46Z</time>
      </trkpt>
      <trkpt lat="50.73885" lon="3.749">
        <ele>31.38</ele>
        <time>2017-04-24T16:17:03Z</time>
      </trkpt>
      <trkpt lat="50.73893" lon="3.74905">
        <ele>31.38</ele>
        <time>2017-04-24T16:17:14Z</time>
      </trkpt>
      <trkpt lat="50.73904" lon="3.74906">
        <ele>31.38</ele>
        <time>2017-04-24T16:17:22Z</time>
      </trkpt>
      <trkpt lat="50.73929" lon="3.74913">
        <ele>31.86</ele>
        <time>2017-04-24T16:17:39Z</time>
      </trkpt>
      <trkpt lat="50.7395" lon="3.74918">
        <ele>32.82</ele>
        <time>2017-04-24T16:17:55Z</time>
      </trkpt>
      <trkpt lat="50.73958" lon="3.74907">
        <ele>33.3</ele>
        <time>2017-04-24T16:18:07Z</time>
      </trkpt>
      <trkpt lat="50.73969" lon="3.74888">
        <ele>33.78</ele>
        <time>2017-04-24T16:18:20Z</time>
      </trkpt>
      <trkpt lat="50.73971" lon="3.74882">
        <ele>33.78</ele>
        <time>2017-04-24T16:18:24Z</time>
      </trkpt>
      <trkpt lat="50.73974" lon="3.74869">
        <ele>33.78</ele>
        <time>2017-04-24T16:18:30Z</time>
      </trkpt>
      <trkpt lat="50.73975" lon="3.74861">
        <ele>33.78</ele>
        <time>2017-04-24T16:18:34Z</time>
      </trkpt>
      <trkpt lat="50.73982" lon="3.74829">
        <ele>34.74</ele>
        <time>2017-04-24T16:18:50Z</time>
      </trkpt>
      <trkpt lat="50.73982" lon="3.74827">
        <ele>34.74</ele>
        <time>2017-04-24T16:18:51Z</time>
      </trkpt>
      <trkpt lat="50.73984" lon="3.74793">
        <ele>34.74</ele>
        <time>2017-04-24T16:19:09Z</time>
      </trkpt>
      <trkpt lat="50.73985" lon="3.74787">
        <ele>34.74</ele>
        <time>2017-04-24T16:19:12Z</time>
      </trkpt>
      <trkpt lat="50.73998" lon="3.7476">
        <ele>34.26</ele>
        <time>2017-04-24T16:19:30Z</time>
      </trkpt>
      <trkpt lat="50.74009" lon="3.74736">
        <ele>34.26</ele>
        <time>2017-04-24T16:19:43Z</time>
      </trkpt>
      <trkpt lat="50.74015" lon="3.74718">
        <ele>34.26</ele>
        <time>2017-04-24T16:19:54Z</time>
      </trkpt>
      <trkpt lat="50.74024" lon="3.74697">
        <ele>34.26</ele>
        <time>2017-04-24T16:20:07Z</time>
      </trkpt>
      <trkpt lat="50.74035" lon="3.74677">
        <ele>34.26</ele>
        <time>2017-04-24T16:20:21Z</time>
      </trkpt>
      <trkpt lat="50.74049" lon="3.74669">
        <ele>34.26</ele>
        <time>2017-04-24T16:20:36Z</time>
      </trkpt>
      <trkpt lat="50.74051" lon="3.74668">
        <ele>34.26</ele>
        <time>2017-04-24T16:20:38Z</time>
      </trkpt>
      <trkpt lat="50.74058" lon="3.74663">
        <ele>34.26</ele>
        <time>2017-04-24T16:20:42Z</time>
      </trkpt>
      <trkpt lat="50.74063" lon="3.7464">
        <ele>34.74</ele>
        <time>2017-04-24T16:20:55Z</time>
      </trkpt>
      <trkpt lat="50.74067" lon="3.74612">
        <ele>34.74</ele>
        <time>2017-04-24T16:21:10Z</time>
      </trkpt>
      <trkpt lat="50.74067" lon="3.74602">
        <ele>34.74</ele>
        <time>2017-04-24T16:21:15Z</time>
      </trkpt>
      <trkpt lat="50.74067" lon="3.74568">
        <ele>34.74</ele>
        <time>2017-04-24T16:21:33Z</time>
      </trkpt>
      <trkpt lat="50.74068" lon="3.74543">
        <ele>34.74</ele>
        <time>2017-04-24T16:21:47Z</time>
      </trkpt>
      <trkpt lat="50.74065" lon="3.74511">
        <ele>34.74</ele>
        <time>2017-04-24T16:22:02Z</time>
      </trkpt>
      <trkpt lat="50.74067" lon="3.74491">
        <ele>34.74</ele>
        <time>2017-04-24T16:22:14Z</time>
      </trkpt>
      <trkpt lat="50.74055" lon="3.74458">
        <ele>34.74</ele>
        <time>2017-04-24T16:22:31Z</time>
      </trkpt>
      <trkpt lat="50.74044" lon="3.7443">
        <ele>34.74</ele>
        <time>2017-04-24T16:22:49Z</time>
      </trkpt>
      <trkpt lat="50.74043" lon="3.74411">
        <ele>34.74</ele>
        <time>2017-04-24T16:23:01Z</time>
      </trkpt>
      <trkpt lat="50.74047" lon="3.74405">
        <ele>34.74</ele>
        <time>2017-04-24T16:23:06Z</time>
      </trkpt>
      <trkpt lat="50.74054" lon="3.74388">
        <ele>34.74</ele>
        <time>2017-04-24T16:23:15Z</time>
      </trkpt>
      <trkpt lat="50.74044" lon="3.74361">
        <ele>35.23</ele>
        <time>2017-04-24T16:23:31Z</time>
      </trkpt>
      <trkpt lat="50.74031" lon="3.74336">
        <ele>36.19</ele>
        <time>2017-04-24T16:23:45Z</time>
      </trkpt>
      <trkpt lat="50.74031" lon="3.74332">
        <ele>36.19</ele>
        <time>2017-04-24T16:23:47Z</time>
      </trkpt>
      <trkpt lat="50.74034" lon="3.74321">
        <ele>36.67</ele>
        <time>2017-04-24T16:23:52Z</time>
      </trkpt>
      <trkpt lat="50.74051" lon="3.74292">
        <ele>36.67</ele>
        <time>2017-04-24T16:24:13Z</time>
      </trkpt>
      <trkpt lat="50.74056" lon="3.74285">
        <ele>36.67</ele>
        <time>2017-04-24T16:24:18Z</time>
      </trkpt>
      <trkpt lat="50.74062" lon="3.74277">
        <ele>37.15</ele>
        <time>2017-04-24T16:24:24Z</time>
      </trkpt>
      <trkpt lat="50.74078" lon="3.74256">
        <ele>38.11</ele>
        <time>2017-04-24T16:24:41Z</time>
      </trkpt>
      <trkpt lat="50.74098" lon="3.74236">
        <ele>37.63</ele>
        <time>2017-04-24T16:24:57Z</time>
      </trkpt>
      <trkpt lat="50.74099" lon="3.74234">
        <ele>37.63</ele>
        <time>2017-04-24T16:24:58Z</time>
      </trkpt>
      <trkpt lat="50.74101" lon="3.74228">
        <ele>36.67</ele>
        <time>2017-04-24T16:25:01Z</time>
      </trkpt>
      <trkpt lat="50.74104" lon="3.74219">
        <ele>36.67</ele>
        <time>2017-04-24T16:25:06Z</time>
      </trkpt>
      <trkpt lat="50.74107" lon="3.74215">
        <ele>37.63</ele>
        <time>2017-04-24T16:25:09Z</time>
      </trkpt>
      <trkpt lat="50.74113" lon="3.74201">
        <ele>37.63</ele>
        <time>2017-04-24T16:25:18Z</time>
      </trkpt>
      <trkpt lat="50.74126" lon="3.74185">
        <ele>37.63</ele>
        <time>2017-04-24T16:25:31Z</time>
      </trkpt>
      <trkpt lat="50.74129" lon="3.74178">
        <ele>37.63</ele>
        <time>2017-04-24T16:25:36Z</time>
      </trkpt>
      <trkpt lat="50.74136" lon="3.74169">
        <ele>37.63</ele>
        <time>2017-04-24T16:25:44Z</time>
      </trkpt>
      <trkpt lat="50.74139" lon="3.74167">
        <ele>37.63</ele>
        <time>2017-04-24T16:25:46Z</time>
      </trkpt>
      <trkpt lat="50.74155" lon="3.74144">
        <ele>37.63</ele>
        <time>2017-04-24T16:26:00Z</time>
      </trkpt>
      <trkpt lat="50.74167" lon="3.74125">
        <ele>37.15</ele>
        <time>2017-04-24T16:26:12Z</time>
      </trkpt>
      <trkpt lat="50.74179" lon="3.74102">
        <ele>37.63</ele>
        <time>2017-04-24T16:26:25Z</time>
      </trkpt>
      <trkpt lat="50.7418" lon="3.74102">
        <ele>37.63</ele>
        <time>2017-04-24T16:26:26Z</time>
      </trkpt>
      <trkpt lat="50.74192" lon="3.74091">
        <ele>37.63</ele>
        <time>2017-04-24T16:26:37Z</time>
      </trkpt>
      <trkpt lat="50.74207" lon="3.74068">
        <ele>38.11</ele>
        <time>2017-04-24T16:26:52Z</time>
      </trkpt>
      <trkpt lat="50.7422" lon="3.7405">
        <ele>38.11</ele>
        <time>2017-04-24T16:27:05Z</time>
      </trkpt>
      <trkpt lat="50.74233" lon="3.74034">
        <ele>38.11</ele>
        <time>2017-04-24T16:27:18Z</time>
      </trkpt>
      <trkpt lat="50.74236" lon="3.74029">
        <ele>38.11</ele>
        <time>2017-04-24T16:27:21Z</time>
      </trkpt>
      <trkpt lat="50.74247" lon="3.74013">
        <ele>38.11</ele>
        <time>2017-04-24T16:27:34Z</time>
      </trkpt>
      <trkpt lat="50.74248" lon="3.74011">
        <ele>38.11</ele>
        <time>2017-04-24T16:27:36Z</time>
      </trkpt>
      <trkpt lat="50.74263" lon="3.73988">
        <ele>39.07</ele>
        <time>2017-04-24T16:27:52Z</time>
      </trkpt>
      <trkpt lat="50.74276" lon="3.73965">
        <ele>39.07</ele>
        <time>2017-04-24T16:28:07Z</time>
      </trkpt>
      <trkpt lat="50.74293" lon="3.73936">
        <ele>39.55</ele>
        <time>2017-04-24T16:28:26Z</time>
      </trkpt>
      <trkpt lat="50.74295" lon="3.73931">
        <ele>39.55</ele>
        <time>2017-04-24T16:28:29Z</time>
      </trkpt>
      <trkpt lat="50.74296" lon="3.73928">
        <ele>39.55</ele>
        <time>2017-04-24T16:28:31Z</time>
      </trkpt>
      <trkpt lat="50.74302" lon="3.73919">
        <ele>39.55</ele>
        <time>2017-04-24T16:28:37Z</time>
      </trkpt>
      <trkpt lat="50.74317" lon="3.73885">
        <ele>40.03</ele>
        <time>2017-04-24T16:28:58Z</time>
      </trkpt>
      <trkpt lat="50.74329" lon="3.73854">
        <ele>40.03</ele>
        <time>2017-04-24T16:29:16Z</time>
      </trkpt>
      <trkpt lat="50.74338" lon="3.7382">
        <ele>40.03</ele>
        <time>2017-04-24T16:29:35Z</time>
      </trkpt>
      <trkpt lat="50.74347" lon="3.73794">
        <ele>40.51</ele>
        <time>2017-04-24T16:29:52Z</time>
      </trkpt>
      <trkpt lat="50.74354" lon="3.73772">
        <ele>40.51</ele>
        <time>2017-04-24T16:30:06Z</time>
      </trkpt>
      <trkpt lat="50.74362" lon="3.73747">
        <ele>40.51</ele>
        <time>2017-04-24T16:30:20Z</time>
      </trkpt>
      <trkpt lat="50.7437" lon="3.73712">
        <ele>40.51</ele>
        <time>2017-04-24T16:30:38Z</time>
      </trkpt>
      <trkpt lat="50.74371" lon="3.73708">
        <ele>40.51</ele>
        <time>2017-04-24T16:30:40Z</time>
      </trkpt>
      <trkpt lat="50.74378" lon="3.73689">
        <ele>40.51</ele>
        <time>2017-04-24T16:30:51Z</time>
      </trkpt>
      <trkpt lat="50.74384" lon="3.73669">
        <ele>40.51</ele>
        <time>2017-04-24T16:31:03Z</time>
      </trkpt>
      <trkpt lat="50.74391" lon="3.73637">
        <ele>40.51</ele>
        <time>2017-04-24T16:31:19Z</time>
      </trkpt>
      <trkpt lat="50.74399" lon="3.7361">
        <ele>40.51</ele>
        <time>2017-04-24T16:31:34Z</time>
      </trkpt>
      <trkpt lat="50.74405" lon="3.73584">
        <ele>40.51</ele>
        <time>2017-04-24T16:31:48Z</time>
      </trkpt>
      <trkpt lat="50.74411" lon="3.73553">
        <ele>40.51</ele>
        <time>2017-04-24T16:32:04Z</time>
      </trkpt>
      <trkpt lat="50.74418" lon="3.73521">
        <ele>40.99</ele>
        <time>2017-04-24T16:32:20Z</time>
      </trkpt>
      <trkpt lat="50.7442" lon="3.73505">
        <ele>40.99</ele>
        <time>2017-04-24T16:32:29Z</time>
      </trkpt>
      <trkpt lat="50.74425" lon="3.73477">
        <ele>41.47</ele>
        <time>2017-04-24T16:32:46Z</time>
      </trkpt>
      <trkpt lat="50.74427" lon="3.73472">
        <ele>41.47</ele>
        <time>2017-04-24T16:32:49Z</time>
      </trkpt>
      <trkpt lat="50.74436" lon="3.73442">
        <ele>41.47</ele>
        <time>2017-04-24T16:33:07Z</time>
      </trkpt>
      <trkpt lat="50.74442" lon="3.73411">
        <ele>41.47</ele>
        <time>2017-04-24T16:33:24Z</time>
      </trkpt>
      <trkpt lat="50.74443" lon="3.73409">
        <ele>41.47</ele>
        <time>2017-04-24T16:33:25Z</time>
      </trkpt>
      <trkpt lat="50.74451" lon="3.73375">
        <ele>41.47</ele>
        <time>2017-04-24T16:33:43Z</time>
      </trkpt>
      <trkpt lat="50.74453" lon="3.73365">
        <ele>41.47</ele>
        <time>2017-04-24T16:33:48Z</time>
      </trkpt>
      <trkpt lat="50.74459" lon="3.73337">
        <ele>41.47</ele>
        <time>2017-04-24T16:34:03Z</time>
      </trkpt>
      <trkpt lat="50.74466" lon="3.73308">
        <ele>41.47</ele>
        <time>2017-04-24T16:34:19Z</time>
      </trkpt>
      <trkpt lat="50.74468" lon="3.73302">
        <ele>40.99</ele>
        <time>2017-04-24T16:34:22Z</time>
      </trkpt>
      <trkpt lat="50.74477" lon="3.73273">
        <ele>41.47</ele>
        <time>2017-04-24T16:34:38Z</time>
      </trkpt>
      <trkpt lat="50.74478" lon="3.73267">
        <ele>41.47</ele>
        <time>2017-04-24T16:34:41Z</time>
      </trkpt>
      <trkpt lat="50.74485" lon="3.73241">
        <ele>41.47</ele>
        <time>2017-04-24T16:34:55Z</time>
      </trkpt>
      <trkpt lat="50.7449" lon="3.73221">
        <ele>41.47</ele>
        <time>2017-04-24T16:35:07Z</time>
      </trkpt>
      <trkpt lat="50.74492" lon="3.73215">
        <ele>41.47</ele>
        <time>2017-04-24T16:35:10Z</time>
      </trkpt>
      <trkpt lat="50.74498" lon="3.73186">
        <ele>41.95</ele>
        <time>2017-04-24T16:35:25Z</time>
      </trkpt>
      <trkpt lat="50.745" lon="3.73175">
        <ele>41.95</ele>
        <time>2017-04-24T16:35:31Z</time>
      </trkpt>
      <trkpt lat="50.74507" lon="3.73148">
        <ele>42.44</ele>
        <time>2017-04-24T16:35:48Z</time>
      </trkpt>
      <trkpt lat="50.7451" lon="3.73134">
        <ele>42.44</ele>
        <time>2017-04-24T16:35:55Z</time>
      </trkpt>
      <trkpt lat="50.74516" lon="3.73105">
        <ele>42.44</ele>
        <time>2017-04-24T16:36:12Z</time>
      </trkpt>
      <trkpt lat="50.74523" lon="3.73081">
        <ele>43.4</ele>
        <time>2017-04-24T16:36:26Z</time>
      </trkpt>
      <trkpt lat="50.74529" lon="3.73055">
        <ele>43.4</ele>
        <time>2017-04-24T16:36:40Z</time>
      </trkpt>
      <trkpt lat="50.74529" lon="3.73054">
        <ele>43.4</ele>
        <time>2017-04-24T16:36:41Z</time>
      </trkpt>
      <trkpt lat="50.7453" lon="3.73051">
        <ele>43.4</ele>
        <time>2017-04-24T16:36:43Z</time>
      </trkpt>
      <trkpt lat="50.74534" lon="3.73042">
        <ele>43.4</ele>
        <time>2017-04-24T16:36:48Z</time>
      </trkpt>
      <trkpt lat="50.7454" lon="3.73016">
        <ele>43.4</ele>
        <time>2017-04-24T16:37:03Z</time>
      </trkpt>
      <trkpt lat="50.7454" lon="3.73014">
        <ele>43.4</ele>
        <time>2017-04-24T16:37:04Z</time>
      </trkpt>
      <trkpt lat="50.74546" lon="3.72986">
        <ele>43.88</ele>
        <time>2017-04-24T16:37:20Z</time>
      </trkpt>
      <trkpt lat="50.74551" lon="3.72965">
        <ele>43.88</ele>
        <time>2017-04-24T16:37:32Z</time>
      </trkpt>
      <trkpt lat="50.74558" lon="3.72937">
        <ele>44.84</ele>
        <time>2017-04-24T16:37:48Z</time>
      </trkpt>
      <trkpt lat="50.74565" lon="3.72914">
        <ele>44.84</ele>
        <time>2017-04-24T16:38:02Z</time>
      </trkpt>
      <trkpt lat="50.74573" lon="3.72885">
        <ele>44.84</ele>
        <time>2017-04-24T16:38:20Z</time>
      </trkpt>
      <trkpt lat="50.74577" lon="3.72867">
        <ele>44.84</ele>
        <time>2017-04-24T16:38:31Z</time>
      </trkpt>
      <trkpt lat="50.74584" lon="3.72837">
        <ele>45.32</ele>
        <time>2017-04-24T16:38:48Z</time>
      </trkpt>
      <trkpt lat="50.74589" lon="3.72812">
        <ele>45.32</ele>
        <time>2017-04-24T16:39:03Z</time>
      </trkpt>
      <trkpt lat="50.74596" lon="3.72783">
        <ele>45.8</ele>
        <time>2017-04-24T16:39:19Z</time>
      </trkpt>
      <trkpt lat="50.74597" lon="3.72779">
        <ele>45.8</ele>
        <time>2017-04-24T16:39:21Z</time>
      </trkpt>
      <trkpt lat="50.74603" lon="3.72753">
        <ele>45.8</ele>
        <time>2017-04-24T16:39:36Z</time>
      </trkpt>
      <trkpt lat="50.7461" lon="3.72725">
        <ele>45.8</ele>
        <time>2017-04-24T16:39:51Z</time>
      </trkpt>
      <trkpt lat="50.74615" lon="3.72701">
        <ele>46.28</ele>
        <time>2017-04-24T16:40:06Z</time>
      </trkpt>
      <trkpt lat="50.74621" lon="3.72679">
        <ele>46.28</ele>
        <time>2017-04-24T16:40:18Z</time>
      </trkpt>
      <trkpt lat="50.74628" lon="3.72651">
        <ele>46.28</ele>
        <time>2017-04-24T16:40:34Z</time>
      </trkpt>
      <trkpt lat="50.74637" lon="3.72618">
        <ele>46.76</ele>
        <time>2017-04-24T16:40:52Z</time>
      </trkpt>
      <trkpt lat="50.74643" lon="3.72594">
        <ele>46.76</ele>
        <time>2017-04-24T16:41:05Z</time>
      </trkpt>
      <trkpt lat="50.7465" lon="3.7256">
        <ele>47.72</ele>
        <time>2017-04-24T16:41:22Z</time>
      </trkpt>
      <trkpt lat="50.7465" lon="3.72558">
        <ele>47.72</ele>
        <time>2017-04-24T16:41:23Z</time>
      </trkpt>
      <trkpt lat="50.74652" lon="3.7255">
        <ele>47.72</ele>
        <time>2017-04-24T16:41:27Z</time>
      </trkpt>
      <trkpt lat="50.7466" lon="3.72515">
        <ele>48.2</ele>
        <time>2017-04-24T16:41:46Z</time>
      </trkpt>
      <trkpt lat="50.74666" lon="3.72494">
        <ele>48.68</ele>
        <time>2017-04-24T16:41:59Z</time>
      </trkpt>
      <trkpt lat="50.74668" lon="3.72485">
        <ele>48.68</ele>
        <time>2017-04-24T16:42:04Z</time>
      </trkpt>
      <trkpt lat="50.74672" lon="3.72467">
        <ele>48.68</ele>
        <time>2017-04-24T16:42:14Z</time>
      </trkpt>
      <trkpt lat="50.74673" lon="3.72463">
        <ele>48.68</ele>
        <time>2017-04-24T16:42:16Z</time>
      </trkpt>
      <trkpt lat="50.7468" lon="3.72428">
        <ele>49.16</ele>
        <time>2017-04-24T16:42:35Z</time>
      </trkpt>
      <trkpt lat="50.74687" lon="3.72406">
        <ele>49.65</ele>
        <time>2017-04-24T16:42:48Z</time>
      </trkpt>
      <trkpt lat="50.74689" lon="3.72394">
        <ele>49.65</ele>
        <time>2017-04-24T16:43:02Z</time>
      </trkpt>
      <trkpt lat="50.74689" lon="3.7239">
        <ele>50.13</ele>
        <time>2017-04-24T16:43:17Z</time>
      </trkpt>
      <trkpt lat="50.74688" lon="3.72384">
        <ele>50.13</ele>
        <time>2017-04-24T16:43:25Z</time>
      </trkpt>
      <trkpt lat="50.7467" lon="3.72375">
        <ele>50.13</ele>
        <time>2017-04-24T16:43:42Z</time>
      </trkpt>
      <trkpt lat="50.74653" lon="3.72356">
        <ele>50.13</ele>
        <time>2017-04-24T16:43:58Z</time>
      </trkpt>
      <trkpt lat="50.74652" lon="3.72353">
        <ele>50.13</ele>
        <time>2017-04-24T16:44:14Z</time>
      </trkpt>
      <trkpt lat="50.74651" lon="3.72354">
        <ele>50.13</ele>
        <time>2017-04-24T16:44:31Z</time>
      </trkpt>
      <trkpt lat="50.74649" lon="3.72354">
        <ele>50.13</ele>
        <time>2017-04-24T16:44:46Z</time>
      </trkpt>
      <trkpt lat="50.7465" lon="3.72353">
        <ele>50.13</ele>
        <time>2017-04-24T16:45:15Z</time>
      </trkpt>
      <trkpt lat="50.74651" lon="3.7235">
        <ele>50.61</ele>
        <time>2017-04-24T16:45:43Z</time>
      </trkpt>
      <trkpt lat="50.74644" lon="3.72358">
        <ele>50.61</ele>
        <time>2017-04-24T16:46:02Z</time>
      </trkpt>
      <trkpt lat="50.74632" lon="3.72338">
        <ele>51.09</ele>
        <time>2017-04-24T16:46:18Z</time>
      </trkpt>
      <trkpt lat="50.74624" lon="3.7233">
        <ele>50.13</ele>
        <time>2017-04-24T16:46:30Z</time>
      </trkpt>
      <trkpt lat="50.74605" lon="3.72314">
        <ele>49.16</ele>
        <time>2017-04-24T16:46:48Z</time>
      </trkpt>
      <trkpt lat="50.74586" lon="3.72309">
        <ele>48.68</ele>
        <time>2017-04-24T16:47:03Z</time>
      </trkpt>
      <trkpt lat="50.74566" lon="3.72319">
        <ele>47.72</ele>
        <time>2017-04-24T16:47:20Z</time>
      </trkpt>
      <trkpt lat="50.74551" lon="3.72341">
        <ele>47.72</ele>
        <time>2017-04-24T16:47:35Z</time>
      </trkpt>
      <trkpt lat="50.7454" lon="3.72375">
        <ele>47.72</ele>
        <time>2017-04-24T16:47:55Z</time>
      </trkpt>
      <trkpt lat="50.7453" lon="3.72421">
        <ele>47.24</ele>
        <time>2017-04-24T16:48:16Z</time>
      </trkpt>
      <trkpt lat="50.74518" lon="3.72456">
        <ele>46.28</ele>
        <time>2017-04-24T16:48:35Z</time>
      </trkpt>
      <trkpt lat="50.74505" lon="3.72486">
        <ele>46.76</ele>
        <time>2017-04-24T16:48:54Z</time>
      </trkpt>
      <trkpt lat="50.74484" lon="3.72514">
        <ele>48.2</ele>
        <time>2017-04-24T16:49:14Z</time>
      </trkpt>
      <trkpt lat="50.74469" lon="3.72538">
        <ele>49.65</ele>
        <time>2017-04-24T16:49:29Z</time>
      </trkpt>
      <trkpt lat="50.74452" lon="3.72566">
        <ele>50.61</ele>
        <time>2017-04-24T16:49:48Z</time>
      </trkpt>
      <trkpt lat="50.7444" lon="3.72591">
        <ele>50.61</ele>
        <time>2017-04-24T16:50:04Z</time>
      </trkpt>
      <trkpt lat="50.74425" lon="3.72626">
        <ele>51.09</ele>
        <time>2017-04-24T16:50:25Z</time>
      </trkpt>
      <trkpt lat="50.7441" lon="3.72659">
        <ele>51.09</ele>
        <time>2017-04-24T16:50:45Z</time>
      </trkpt>
      <trkpt lat="50.74395" lon="3.72686">
        <ele>51.09</ele>
        <time>2017-04-24T16:51:03Z</time>
      </trkpt>
      <trkpt lat="50.74385" lon="3.72706">
        <ele>49.65</ele>
        <time>2017-04-24T16:51:16Z</time>
      </trkpt>
      <trkpt lat="50.74377" lon="3.72724">
        <ele>49.16</ele>
        <time>2017-04-24T16:51:27Z</time>
      </trkpt>
      <trkpt lat="50.74376" lon="3.72727">
        <ele>49.16</ele>
        <time>2017-04-24T16:51:29Z</time>
      </trkpt>
      <trkpt lat="50.74372" lon="3.72737">
        <ele>49.16</ele>
        <time>2017-04-24T16:51:35Z</time>
      </trkpt>
      <trkpt lat="50.74362" lon="3.7277">
        <ele>49.16</ele>
        <time>2017-04-24T16:51:54Z</time>
      </trkpt>
      <trkpt lat="50.74352" lon="3.72801">
        <ele>50.13</ele>
        <time>2017-04-24T16:52:12Z</time>
      </trkpt>
      <trkpt lat="50.74339" lon="3.72827">
        <ele>51.57</ele>
        <time>2017-04-24T16:52:29Z</time>
      </trkpt>
      <trkpt lat="50.74325" lon="3.72851">
        <ele>52.05</ele>
        <time>2017-04-24T16:52:46Z</time>
      </trkpt>
      <trkpt lat="50.7431" lon="3.7288">
        <ele>53.49</ele>
        <time>2017-04-24T16:53:05Z</time>
      </trkpt>
      <trkpt lat="50.74294" lon="3.72906">
        <ele>54.45</ele>
        <time>2017-04-24T16:53:23Z</time>
      </trkpt>
      <trkpt lat="50.74277" lon="3.72936">
        <ele>55.41</ele>
        <time>2017-04-24T16:53:43Z</time>
      </trkpt>
      <trkpt lat="50.74261" lon="3.72966">
        <ele>56.37</ele>
        <time>2017-04-24T16:54:03Z</time>
      </trkpt>
      <trkpt lat="50.7425" lon="3.7299">
        <ele>56.86</ele>
        <time>2017-04-24T16:54:19Z</time>
      </trkpt>
      <trkpt lat="50.74237" lon="3.73018">
        <ele>56.86</ele>
        <time>2017-04-24T16:54:35Z</time>
      </trkpt>
      <trkpt lat="50.74218" lon="3.73035">
        <ele>54.93</ele>
        <time>2017-04-24T16:54:53Z</time>
      </trkpt>
      <trkpt lat="50.74197" lon="3.73044">
        <ele>54.93</ele>
        <time>2017-04-24T16:55:11Z</time>
      </trkpt>
      <trkpt lat="50.74181" lon="3.73053">
        <ele>54.93</ele>
        <time>2017-04-24T16:55:25Z</time>
      </trkpt>
      <trkpt lat="50.74164" lon="3.73064">
        <ele>54.93</ele>
        <time>2017-04-24T16:55:40Z</time>
      </trkpt>
      <trkpt lat="50.74152" lon="3.73079">
        <ele>54.93</ele>
        <time>2017-04-24T16:55:56Z</time>
      </trkpt>
      <trkpt lat="50.74133" lon="3.73101">
        <ele>54.93</ele>
        <time>2017-04-24T16:56:16Z</time>
      </trkpt>
      <trkpt lat="50.7412" lon="3.73114">
        <ele>54.93</ele>
        <time>2017-04-24T16:56:30Z</time>
      </trkpt>
      <trkpt lat="50.74104" lon="3.73133">
        <ele>54.93</ele>
        <time>2017-04-24T16:56:47Z</time>
      </trkpt>
      <trkpt lat="50.74088" lon="3.73153">
        <ele>54.93</ele>
        <time>2017-04-24T16:57:04Z</time>
      </trkpt>
      <trkpt lat="50.74073" lon="3.73171">
        <ele>54.93</ele>
        <time>2017-04-24T16:57:20Z</time>
      </trkpt>
      <trkpt lat="50.74057" lon="3.7319">
        <ele>53.97</ele>
        <time>2017-04-24T16:57:37Z</time>
      </trkpt>
      <trkpt lat="50.74047" lon="3.73209">
        <ele>53.97</ele>
        <time>2017-04-24T16:57:51Z</time>
      </trkpt>
      <trkpt lat="50.7404" lon="3.7324">
        <ele>53.01</ele>
        <time>2017-04-24T16:58:09Z</time>
      </trkpt>
      <trkpt lat="50.74035" lon="3.73259">
        <ele>53.01</ele>
        <time>2017-04-24T16:58:20Z</time>
      </trkpt>
      <trkpt lat="50.7403" lon="3.73286">
        <ele>53.01</ele>
        <time>2017-04-24T16:58:36Z</time>
      </trkpt>
      <trkpt lat="50.74025" lon="3.73305">
        <ele>52.53</ele>
        <time>2017-04-24T16:58:48Z</time>
      </trkpt>
      <trkpt lat="50.7402" lon="3.73336">
        <ele>51.57</ele>
        <time>2017-04-24T16:59:04Z</time>
      </trkpt>
      <trkpt lat="50.74015" lon="3.7336">
        <ele>51.57</ele>
        <time>2017-04-24T16:59:18Z</time>
      </trkpt>
      <trkpt lat="50.74006" lon="3.73393">
        <ele>51.09</ele>
        <time>2017-04-24T16:59:34Z</time>
      </trkpt>
      <trkpt lat="50.73997" lon="3.73427">
        <ele>50.13</ele>
        <time>2017-04-24T16:59:52Z</time>
      </trkpt>
      <trkpt lat="50.73989" lon="3.73453">
        <ele>49.65</ele>
        <time>2017-04-24T17:00:08Z</time>
      </trkpt>
      <trkpt lat="50.73983" lon="3.73475">
        <ele>49.65</ele>
        <time>2017-04-24T17:00:22Z</time>
      </trkpt>
      <trkpt lat="50.73975" lon="3.73497">
        <ele>48.68</ele>
        <time>2017-04-24T17:00:36Z</time>
      </trkpt>
      <trkpt lat="50.73965" lon="3.73529">
        <ele>47.72</ele>
        <time>2017-04-24T17:00:53Z</time>
      </trkpt>
      <trkpt lat="50.73964" lon="3.7353">
        <ele>47.72</ele>
        <time>2017-04-24T17:00:54Z</time>
      </trkpt>
      <trkpt lat="50.73954" lon="3.73559">
        <ele>46.28</ele>
        <time>2017-04-24T17:01:11Z</time>
      </trkpt>
      <trkpt lat="50.73945" lon="3.73585">
        <ele>45.8</ele>
        <time>2017-04-24T17:01:28Z</time>
      </trkpt>
      <trkpt lat="50.73944" lon="3.73592">
        <ele>45.32</ele>
        <time>2017-04-24T17:01:46Z</time>
      </trkpt>
      <trkpt lat="50.73943" lon="3.73596">
        <ele>45.32</ele>
        <time>2017-04-24T17:01:58Z</time>
      </trkpt>
      <trkpt lat="50.73945" lon="3.73624">
        <ele>45.32</ele>
        <time>2017-04-24T17:02:13Z</time>
      </trkpt>
      <trkpt lat="50.73948" lon="3.73644">
        <ele>44.84</ele>
        <time>2017-04-24T17:02:23Z</time>
      </trkpt>
      <trkpt lat="50.73951" lon="3.73649">
        <ele>44.84</ele>
        <time>2017-04-24T17:02:26Z</time>
      </trkpt>
      <trkpt lat="50.73963" lon="3.7367">
        <ele>44.84</ele>
        <time>2017-04-24T17:02:40Z</time>
      </trkpt>
      <trkpt lat="50.73977" lon="3.73691">
        <ele>44.84</ele>
        <time>2017-04-24T17:02:55Z</time>
      </trkpt>
      <trkpt lat="50.73984" lon="3.73716">
        <ele>44.84</ele>
        <time>2017-04-24T17:03:10Z</time>
      </trkpt>
      <trkpt lat="50.73987" lon="3.73731">
        <ele>44.36</ele>
        <time>2017-04-24T17:03:22Z</time>
      </trkpt>
      <trkpt lat="50.73987" lon="3.73739">
        <ele>43.88</ele>
        <time>2017-04-24T17:03:26Z</time>
      </trkpt>
      <trkpt lat="50.73986" lon="3.73749">
        <ele>43.88</ele>
        <time>2017-04-24T17:03:31Z</time>
      </trkpt>
      <trkpt lat="50.73979" lon="3.73757">
        <ele>42.92</ele>
        <time>2017-04-24T17:03:38Z</time>
      </trkpt>
      <trkpt lat="50.7397" lon="3.73761">
        <ele>42.44</ele>
        <time>2017-04-24T17:03:47Z</time>
      </trkpt>
      <trkpt lat="50.73972" lon="3.73772">
        <ele>43.4</ele>
        <time>2017-04-24T17:03:52Z</time>
      </trkpt>
      <trkpt lat="50.73979" lon="3.73811">
        <ele>44.36</ele>
        <time>2017-04-24T17:04:11Z</time>
      </trkpt>
      <trkpt lat="50.73985" lon="3.73845">
        <ele>44.36</ele>
        <time>2017-04-24T17:04:27Z</time>
      </trkpt>
      <trkpt lat="50.73992" lon="3.73875">
        <ele>44.36</ele>
        <time>2017-04-24T17:04:43Z</time>
      </trkpt>
      <trkpt lat="50.74002" lon="3.73898">
        <ele>44.36</ele>
        <time>2017-04-24T17:04:59Z</time>
      </trkpt>
      <trkpt lat="50.7401" lon="3.73907">
        <ele>44.36</ele>
        <time>2017-04-24T17:05:11Z</time>
      </trkpt>
      <trkpt lat="50.74025" lon="3.73921">
        <ele>44.84</ele>
        <time>2017-04-24T17:05:25Z</time>
      </trkpt>
      <trkpt lat="50.74042" lon="3.73933">
        <ele>44.84</ele>
        <time>2017-04-24T17:05:40Z</time>
      </trkpt>
      <trkpt lat="50.74053" lon="3.73943">
        <ele>45.32</ele>
        <time>2017-04-24T17:05:49Z</time>
      </trkpt>
      <trkpt lat="50.74055" lon="3.73943">
        <ele>45.32</ele>
        <time>2017-04-24T17:05:51Z</time>
      </trkpt>
      <trkpt lat="50.74072" lon="3.73962">
        <ele>45.32</ele>
        <time>2017-04-24T17:06:08Z</time>
      </trkpt>
      <trkpt lat="50.74092" lon="3.73986">
        <ele>43.88</ele>
        <time>2017-04-24T17:06:23Z</time>
      </trkpt>
      <trkpt lat="50.74101" lon="3.74001">
        <ele>43.88</ele>
        <time>2017-04-24T17:06:32Z</time>
      </trkpt>
      <trkpt lat="50.74096" lon="3.74041">
        <ele>42.44</ele>
        <time>2017-04-24T17:06:53Z</time>
      </trkpt>
      <trkpt lat="50.74091" lon="3.74078">
        <ele>41.47</ele>
        <time>2017-04-24T17:07:11Z</time>
      </trkpt>
      <trkpt lat="50.74085" lon="3.74114">
        <ele>40.03</ele>
        <time>2017-04-24T17:07:29Z</time>
      </trkpt>
      <trkpt lat="50.74074" lon="3.74143">
        <ele>39.07</ele>
        <time>2017-04-24T17:07:46Z</time>
      </trkpt>
      <trkpt lat="50.74061" lon="3.74174">
        <ele>38.11</ele>
        <time>2017-04-24T17:08:05Z</time>
      </trkpt>
      <trkpt lat="50.74049" lon="3.74198">
        <ele>37.63</ele>
        <time>2017-04-24T17:08:20Z</time>
      </trkpt>
      <trkpt lat="50.74033" lon="3.74225">
        <ele>37.15</ele>
        <time>2017-04-24T17:08:38Z</time>
      </trkpt>
      <trkpt lat="50.74017" lon="3.74249">
        <ele>37.15</ele>
        <time>2017-04-24T17:08:54Z</time>
      </trkpt>
      <trkpt lat="50.74002" lon="3.7427">
        <ele>36.19</ele>
        <time>2017-04-24T17:09:08Z</time>
      </trkpt>
      <trkpt lat="50.7399" lon="3.74288">
        <ele>36.19</ele>
        <time>2017-04-24T17:09:23Z</time>
      </trkpt>
      <trkpt lat="50.73975" lon="3.74306">
        <ele>35.23</ele>
        <time>2017-04-24T17:09:38Z</time>
      </trkpt>
      <trkpt lat="50.73961" lon="3.74324">
        <ele>35.23</ele>
        <time>2017-04-24T17:09:51Z</time>
      </trkpt>
      <trkpt lat="50.73941" lon="3.74339">
        <ele>35.23</ele>
        <time>2017-04-24T17:10:06Z</time>
      </trkpt>
      <trkpt lat="50.73923" lon="3.74352">
        <ele>35.23</ele>
        <time>2017-04-24T17:10:21Z</time>
      </trkpt>
      <trkpt lat="50.73906" lon="3.74363">
        <ele>34.74</ele>
        <time>2017-04-24T17:10:36Z</time>
      </trkpt>
      <trkpt lat="50.73891" lon="3.74373">
        <ele>34.74</ele>
        <time>2017-04-24T17:10:52Z</time>
      </trkpt>
      <trkpt lat="50.73882" lon="3.74379">
        <ele>34.74</ele>
        <time>2017-04-24T17:11:00Z</time>
      </trkpt>
      <trkpt lat="50.73881" lon="3.74361">
        <ele>34.26</ele>
        <time>2017-04-24T17:11:18Z</time>
      </trkpt>
      <trkpt lat="50.73882" lon="3.74339">
        <ele>34.26</ele>
        <time>2017-04-24T17:11:30Z</time>
      </trkpt>
      <trkpt lat="50.73883" lon="3.74332">
        <ele>34.26</ele>
        <time>2017-04-24T17:11:33Z</time>
      </trkpt>
      <trkpt lat="50.73886" lon="3.74314">
        <ele>34.26</ele>
        <time>2017-04-24T17:11:42Z</time>
      </trkpt>
      <trkpt lat="50.73886" lon="3.74294">
        <ele>34.26</ele>
        <time>2017-04-24T17:11:55Z</time>
      </trkpt>
      <trkpt lat="50.73881" lon="3.7425">
        <ele>33.78</ele>
        <time>2017-04-24T17:12:13Z</time>
      </trkpt>
      <trkpt lat="50.73879" lon="3.74238">
        <ele>33.78</ele>
        <time>2017-04-24T17:12:18Z</time>
      </trkpt>
      <trkpt lat="50.73875" lon="3.74232">
        <ele>33.78</ele>
        <time>2017-04-24T17:12:22Z</time>
      </trkpt>
      <trkpt lat="50.73856" lon="3.74237">
        <ele>35.23</ele>
        <time>2017-04-24T17:12:36Z</time>
      </trkpt>
      <trkpt lat="50.73846" lon="3.74241">
        <ele>35.23</ele>
        <time>2017-04-24T17:12:45Z</time>
      </trkpt>
      <trkpt lat="50.7384" lon="3.74243">
        <ele>35.71</ele>
        <time>2017-04-24T17:12:50Z</time>
      </trkpt>
      <trkpt lat="50.73819" lon="3.74253">
        <ele>37.15</ele>
        <time>2017-04-24T17:13:06Z</time>
      </trkpt>
      <trkpt lat="50.73797" lon="3.74262">
        <ele>38.59</ele>
        <time>2017-04-24T17:13:22Z</time>
      </trkpt>
      <trkpt lat="50.73782" lon="3.74268">
        <ele>40.03</ele>
        <time>2017-04-24T17:13:35Z</time>
      </trkpt>
      <trkpt lat="50.73778" lon="3.74258">
        <ele>40.51</ele>
        <time>2017-04-24T17:13:51Z</time>
      </trkpt>
      <trkpt lat="50.73776" lon="3.74224">
        <ele>40.51</ele>
        <time>2017-04-24T17:14:10Z</time>
      </trkpt>
      <trkpt lat="50.73775" lon="3.74193">
        <ele>40.99</ele>
        <time>2017-04-24T17:14:26Z</time>
      </trkpt>
      <trkpt lat="50.73774" lon="3.74168">
        <ele>41.47</ele>
        <time>2017-04-24T17:14:41Z</time>
      </trkpt>
      <trkpt lat="50.73772" lon="3.7415">
        <ele>41.95</ele>
        <time>2017-04-24T17:14:52Z</time>
      </trkpt>
      <trkpt lat="50.73772" lon="3.74133">
        <ele>42.44</ele>
        <time>2017-04-24T17:15:01Z</time>
      </trkpt>
      <trkpt lat="50.73771" lon="3.74111">
        <ele>42.92</ele>
        <time>2017-04-24T17:15:14Z</time>
      </trkpt>
      <trkpt lat="50.7377" lon="3.74086">
        <ele>42.92</ele>
        <time>2017-04-24T17:15:28Z</time>
      </trkpt>
      <trkpt lat="50.7377" lon="3.74062">
        <ele>41.95</ele>
        <time>2017-04-24T17:15:41Z</time>
      </trkpt>
      <trkpt lat="50.73773" lon="3.74031">
        <ele>40.51</ele>
        <time>2017-04-24T17:15:55Z</time>
      </trkpt>
      <trkpt lat="50.73774" lon="3.73999">
        <ele>38.59</ele>
        <time>2017-04-24T17:16:11Z</time>
      </trkpt>
      <trkpt lat="50.73773" lon="3.73978">
        <ele>37.63</ele>
        <time>2017-04-24T17:16:22Z</time>
      </trkpt>
      <trkpt lat="50.73747" lon="3.73993">
        <ele>40.51</ele>
        <time>2017-04-24T17:16:43Z</time>
      </trkpt>
      <trkpt lat="50.73741" lon="3.7399">
        <ele>40.99</ele>
        <time>2017-04-24T17:16:48Z</time>
      </trkpt>
      <trkpt lat="50.73735" lon="3.73967">
        <ele>41.47</ele>
        <time>2017-04-24T17:17:03Z</time>
      </trkpt>
      <trkpt lat="50.73725" lon="3.73938">
        <ele>41.47</ele>
        <time>2017-04-24T17:17:20Z</time>
      </trkpt>
      <trkpt lat="50.73726" lon="3.73924">
        <ele>41.47</ele>
        <time>2017-04-24T17:17:30Z</time>
      </trkpt>
      <trkpt lat="50.73716" lon="3.73905">
        <ele>41.47</ele>
        <time>2017-04-24T17:17:38Z</time>
      </trkpt>
      <trkpt lat="50.73708" lon="3.73889">
        <ele>42.44</ele>
        <time>2017-04-24T17:17:50Z</time>
      </trkpt>
      <trkpt lat="50.73707" lon="3.7389">
        <ele>39.55</ele>
        <time>2017-04-24T17:17:59Z</time>
      </trkpt>
      <trkpt lat="50.73707" lon="3.7389">
        <ele>42.92</ele>
        <time>2017-04-24T17:18:00Z</time>
      </trkpt>
      <trkpt lat="50.73706" lon="3.7389">
        <ele>37.63</ele>
        <time>2017-04-24T17:18:01Z</time>
      </trkpt>
      <trkpt lat="50.73705" lon="3.7389">
        <ele>42.44</ele>
        <time>2017-04-24T17:18:03Z</time>
      </trkpt>
      <trkpt lat="50.73705" lon="3.7389">
        <ele>42.44</ele>
        <time>2017-04-24T17:18:04Z</time>
      </trkpt>
      <trkpt lat="50.73704" lon="3.73888">
        <ele>42.44</ele>
        <time>2017-04-24T17:18:10Z</time>
      </trkpt>
      <trkpt lat="50.73703" lon="3.73886">
        <ele>51.57</ele>
        <time>2017-04-24T17:18:12Z</time>
      </trkpt>
      <trkpt lat="50.73702" lon="3.73885">
        <ele>42.44</ele>
        <time>2017-04-24T17:18:13Z</time>
      </trkpt>
      <trkpt lat="50.73703" lon="3.73886">
        <ele>41.95</ele>
        <time>2017-04-24T17:18:32Z</time>
      </trkpt>
      <trkpt lat="50.737" lon="3.73884">
        <ele>46.28</ele>
        <time>2017-04-24T17:18:43Z</time>
      </trkpt>
      <trkpt lat="50.737" lon="3.73883">
        <ele>41.95</ele>
        <time>2017-04-24T17:18:44Z</time>
      </trkpt>
      <trkpt lat="50.73701" lon="3.73883">
        <ele>38.59</ele>
        <time>2017-04-24T17:18:47Z</time>
      </trkpt>
      <trkpt lat="50.73702" lon="3.73884">
        <ele>44.84</ele>
        <time>2017-04-24T17:18:48Z</time>
      </trkpt>
      <trkpt lat="50.73707" lon="3.73886">
        <ele>41.47</ele>
        <time>2017-04-24T17:18:57Z</time>
      </trkpt>
      <trkpt lat="50.73703" lon="3.73885">
        <ele>43.88</ele>
        <time>2017-04-24T17:19:08Z</time>
      </trkpt>
      <trkpt lat="50.73702" lon="3.73882">
        <ele>33.78</ele>
        <time>2017-04-24T17:19:11Z</time>
      </trkpt>
      <trkpt lat="50.73702" lon="3.73882">
        <ele>40.51</ele>
        <time>2017-04-24T17:19:12Z</time>
      </trkpt>
      <trkpt lat="50.73701" lon="3.73881">
        <ele>43.4</ele>
        <time>2017-04-24T17:19:14Z</time>
      </trkpt>
      <trkpt lat="50.73702" lon="3.73881">
        <ele>40.99</ele>
        <time>2017-04-24T17:19:16Z</time>
      </trkpt>
      <trkpt lat="50.73703" lon="3.7388">
        <ele>42.92</ele>
        <time>2017-04-24T17:19:19Z</time>
      </trkpt>
      <trkpt lat="50.73704" lon="3.73878">
        <ele>48.2</ele>
        <time>2017-04-24T17:19:21Z</time>
      </trkpt>
      <trkpt lat="50.73704" lon="3.73877">
        <ele>43.88</ele>
        <time>2017-04-24T17:19:22Z</time>
      </trkpt>
      <trkpt lat="50.73702" lon="3.73872">
        <ele>42.92</ele>
        <time>2017-04-24T17:19:38Z</time>
      </trkpt>
      <trkpt lat="50.73695" lon="3.73872">
        <ele>43.88</ele>
        <time>2017-04-24T17:19:43Z</time>
      </trkpt>
      <trkpt lat="50.73681" lon="3.73887">
        <ele>43.88</ele>
        <time>2017-04-24T17:19:58Z</time>
      </trkpt>
      <trkpt lat="50.7368" lon="3.73881">
        <ele>44.84</ele>
        <time>2017-04-24T17:20:10Z</time>
      </trkpt>
      <trkpt lat="50.73682" lon="3.73879">
        <ele>43.4</ele>
        <time>2017-04-24T17:20:14Z</time>
      </trkpt>
      <trkpt lat="50.73682" lon="3.73877">
        <ele>44.84</ele>
        <time>2017-04-24T17:20:16Z</time>
      </trkpt>
      <trkpt lat="50.73683" lon="3.73874">
        <ele>43.4</ele>
        <time>2017-04-24T17:20:20Z</time>
      </trkpt>
      <trkpt lat="50.73683" lon="3.73872">
        <ele>43.4</ele>
        <time>2017-04-24T17:20:37Z</time>
      </trkpt>
      <trkpt lat="50.73684" lon="3.73867">
        <ele>43.4</ele>
        <time>2017-04-24T17:20:56Z</time>
      </trkpt>
      <trkpt lat="50.73684" lon="3.73864">
        <ele>43.4</ele>
        <time>2017-04-24T17:21:17Z</time>
      </trkpt>
      <trkpt lat="50.73677" lon="3.73867">
        <ele>43.4</ele>
        <time>2017-04-24T17:21:33Z</time>
      </trkpt>
      <trkpt lat="50.73675" lon="3.73868">
        <ele>44.84</ele>
        <time>2017-04-24T17:21:48Z</time>
      </trkpt>
      <trkpt lat="50.73677" lon="3.73873">
        <ele>44.36</ele>
        <time>2017-04-24T17:22:01Z</time>
      </trkpt>
      <trkpt lat="50.73677" lon="3.73869">
        <ele>44.36</ele>
        <time>2017-04-24T17:22:22Z</time>
      </trkpt>
    </trkseg>
  </trk>
</gpx>